createdAt,value
2023-02-13T00:00:09.487Z,7.50
2023-02-13T00:05:12.498Z,7.00
2023-02-13T00:10:16.808Z,7.00
2023-02-13T00:15:19.884Z,6.00
2023-02-13T00:20:22.864Z,7.00
2023-02-13T00:25:26.972Z,7.25
2023-02-13T00:30:29.737Z,6.50
2023-02-13T00:35:32.544Z,7.50
2023-02-13T00:40:36.991Z,5.00
2023-02-13T00:45:39.863Z,6.00
2023-02-13T00:50:42.598Z,6.25
2023-02-13T00:55:47.308Z,6.00
2023-02-13T01:00:52.003Z,5.00
2023-02-13T01:05:54.775Z,6.75
2023-02-13T01:10:59.544Z,6.00
2023-02-13T01:16:02.992Z,5.50
2023-02-13T01:21:07.753Z,5.50
2023-02-13T01:26:18.202Z,5.75
2023-02-13T01:31:21.565Z,5.00
2023-02-13T01:36:27.089Z,6.00
2023-02-13T01:41:32.460Z,6.00
2023-02-13T01:46:39.629Z,5.00
2023-02-13T01:51:43.620Z,5.00
2023-02-13T01:56:51.072Z,6.00
2023-02-13T02:01:55.278Z,5.00
2023-02-13T02:07:05.925Z,6.00
2023-02-13T02:12:19.303Z,6.00
2023-02-13T02:17:25.450Z,6.00
2023-02-13T02:23:19.962Z,5.00
2023-02-13T02:29:02.381Z,5.00
2023-02-13T02:34:22.316Z,5.50
2023-02-13T02:39:35.015Z,4.75
2023-02-13T02:44:46.310Z,4.00
2023-02-13T02:50:02.140Z,4.50
2023-02-13T02:55:12.337Z,4.50
2023-02-13T03:00:46.683Z,3.50
2023-02-13T03:06:14.098Z,5.00
2023-02-13T03:11:34.499Z,4.50
2023-02-13T03:16:54.915Z,4.00
2023-02-13T03:22:20.614Z,4.00
2023-02-13T03:27:53.790Z,5.50
2023-02-13T03:33:09.284Z,3.75
2023-02-13T03:38:19.802Z,3.75
2023-02-13T03:43:23.672Z,4.25
2023-02-13T03:48:48.141Z,4.00
2023-02-13T03:53:57.008Z,4.50
2023-02-13T03:59:17.599Z,4.75
2023-02-13T04:04:27.632Z,3.75
2023-02-13T04:09:33.945Z,3.00
2023-02-13T04:14:40.983Z,3.00
2023-02-13T04:19:43.833Z,3.50
2023-02-13T04:24:48.630Z,4.75
2023-02-13T04:29:51.397Z,3.00
2023-02-13T04:34:54.278Z,3.00
2023-02-13T04:39:58.420Z,4.00
2023-02-13T04:45:01.335Z,4.00
2023-02-13T04:50:04.493Z,3.25
2023-02-13T04:55:09.115Z,3.00
2023-02-13T05:00:12.829Z,3.00
2023-02-13T05:05:15.707Z,3.25
2023-02-13T05:10:20.208Z,3.00
2023-02-13T05:15:23.638Z,3.25
2023-02-13T05:20:26.529Z,2.00
2023-02-13T05:25:31.156Z,3.00
2023-02-13T05:30:33.924Z,3.00
2023-02-13T05:35:36.759Z,3.00
2023-02-13T05:40:40.849Z,3.00
2023-02-13T05:45:43.686Z,2.00
2023-02-13T05:50:47.622Z,3.00
2023-02-13T05:55:52.263Z,4.00
2023-02-13T06:00:57.424Z,3.00
2023-02-13T06:06:01.199Z,4.00
2023-02-13T06:11:05.916Z,3.00
2023-02-13T06:16:09.134Z,3.00
2023-02-13T06:21:12.136Z,2.00
2023-02-13T06:26:16.325Z,2.00
2023-02-13T06:31:19.259Z,2.00
2023-02-13T06:36:22.114Z,1.50
2023-02-13T06:41:26.243Z,3.00
2023-02-13T06:46:29.203Z,2.00
2023-02-13T06:51:32.028Z,2.00
2023-02-13T06:56:36.117Z,2.50
2023-02-13T07:01:38.863Z,2.00
2023-02-13T07:06:41.631Z,3.00
2023-02-13T07:11:45.751Z,3.00
2023-02-13T07:16:48.745Z,2.25
2023-02-13T07:21:51.580Z,1.75
2023-02-13T07:26:55.689Z,2.00
2023-02-13T07:31:58.523Z,1.50
2023-02-13T07:37:01.274Z,2.00
2023-02-13T07:42:05.841Z,1.00
2023-02-13T07:47:08.738Z,2.00
2023-02-13T07:52:11.522Z,2.00
2023-02-13T07:57:15.827Z,1.75
2023-02-13T08:02:18.616Z,2.00
2023-02-13T08:07:21.423Z,1.50
2023-02-13T08:12:25.755Z,2.00
2023-02-13T08:17:28.586Z,1.25
2023-02-13T08:22:31.391Z,1.50
2023-02-13T08:27:35.549Z,1.50
2023-02-13T08:32:53.031Z,1.50
2023-02-13T08:37:56.781Z,1.50
2023-02-13T08:43:06.619Z,1.50
2023-02-13T08:48:09.462Z,1.00
2023-02-13T08:53:12.269Z,1.00
2023-02-13T08:58:16.427Z,0.50
2023-02-13T09:03:19.238Z,1.00
2023-02-13T09:08:22.011Z,1.75
2023-02-13T09:13:26.234Z,6.00
2023-02-13T09:18:29.496Z,8.50
2023-02-13T09:23:33.076Z,6.00
2023-02-13T09:28:37.959Z,4.50
2023-02-13T09:33:41.018Z,4.00
2023-02-13T09:38:44.952Z,3.00
2023-02-13T09:43:52.060Z,2.00
2023-02-13T09:48:57.676Z,2.00
2023-02-13T09:54:02.571Z,3.00
2023-02-13T09:59:21.136Z,1.75
2023-02-13T10:04:32.903Z,1.00
2023-02-13T10:09:41.489Z,2.50
2023-02-13T10:14:55.884Z,1.75
2023-02-13T10:20:03.886Z,1.00
2023-02-13T10:25:13.377Z,2.25
2023-02-13T10:30:23.462Z,1.00
2023-02-13T10:35:30.721Z,1.00
2023-02-13T10:40:41.537Z,1.50
2023-02-13T10:45:58.245Z,1.00
2023-02-13T10:51:08.328Z,1.00
2023-02-13T10:56:26.286Z,1.00
2023-02-13T11:01:35.991Z,2.00
2023-02-13T11:06:43.550Z,1.25
2023-02-13T11:11:46.456Z,0.75
2023-02-13T11:16:57.047Z,1.25
2023-02-13T11:22:04.694Z,1.00
2023-02-13T11:27:12.888Z,1.00
2023-02-13T11:32:24.309Z,1.00
2023-02-13T11:37:30.016Z,1.00
2023-02-13T11:42:36.507Z,1.00
2023-02-13T11:47:43.175Z,1.00
2023-02-13T11:52:57.465Z,1.00
2023-02-13T11:58:02.375Z,0.75
2023-02-13T12:03:26.964Z,0.75
2023-02-13T12:08:30.974Z,1.00
2023-02-13T12:13:38.933Z,1.00
2023-02-13T12:18:47.277Z,1.00
2023-02-13T12:23:58.819Z,1.00
2023-02-13T12:29:17.325Z,6.00
2023-02-13T12:34:58.825Z,6.50
2023-02-13T12:40:24.678Z,5.75
2023-02-13T12:45:38.521Z,5.00
2023-02-13T12:50:58.360Z,5.00
2023-02-13T12:56:27.113Z,4.75
2023-02-13T13:01:52.183Z,3.25
2023-02-13T13:07:30.291Z,4.00
2023-02-13T13:12:51.030Z,4.25
2023-02-13T13:18:05.260Z,3.50
2023-02-13T13:23:15.657Z,4.50
2023-02-13T13:28:23.518Z,3.00
2023-02-13T13:33:28.114Z,3.50
2023-02-13T13:38:43.885Z,36.80
2023-02-13T13:44:04.775Z,64.20
2023-02-13T13:49:19.238Z,69.00
2023-02-13T13:54:35.797Z,86.20
2023-02-13T14:00:01.002Z,94.80
2023-02-13T14:05:11.450Z,99.67
2023-02-13T14:11:03.352Z,83.80
2023-02-13T14:16:10.252Z,71.80
2023-02-13T14:21:17.883Z,67.40
2023-02-13T14:26:31.315Z,60.60
2023-02-13T14:31:39.207Z,59.80
2023-02-13T14:36:46.241Z,59.00
2023-02-13T14:42:01.547Z,56.60
2023-02-13T14:47:13.911Z,53.60
2023-02-13T14:52:21.595Z,54.00
2023-02-13T14:57:30.092Z,54.20
2023-02-13T15:02:38.952Z,51.80
2023-02-13T15:07:48.328Z,51.40
2023-02-13T15:12:59.379Z,49.20
2023-02-13T15:18:08.837Z,48.80
2023-02-13T15:23:24.523Z,49.20
2023-02-13T15:28:28.161Z,47.60
2023-02-13T15:33:38.296Z,45.80
2023-02-13T15:38:42.680Z,44.00
2023-02-13T15:43:48.459Z,45.60
2023-02-13T15:48:51.790Z,44.00
2023-02-13T15:53:58.462Z,45.60
2023-02-13T15:59:02.616Z,45.80
2023-02-13T16:04:10.391Z,41.20
2023-02-13T16:09:27.369Z,44.00
2023-02-13T16:14:31.788Z,44.20
2023-02-13T16:19:42.848Z,43.40
2023-02-13T16:24:51.545Z,42.60
2023-02-13T16:29:59.019Z,44.00
2023-02-13T16:35:27.209Z,39.40
2023-02-13T16:40:42.846Z,42.00
2023-02-13T16:45:45.943Z,41.20
2023-02-13T16:50:56.505Z,39.00
2023-02-13T16:56:03.594Z,39.60
2023-02-13T17:01:06.952Z,41.80
2023-02-13T17:06:11.585Z,38.20
2023-02-13T17:11:20.409Z,38.60
2023-02-13T17:16:23.224Z,38.00
2023-02-13T17:21:25.998Z,38.20
2023-02-13T17:26:30.182Z,37.60
2023-02-13T17:31:33.063Z,36.00
2023-02-13T17:36:36.169Z,32.00
2023-02-13T17:41:43.000Z,34.00
2023-02-13T17:46:45.981Z,32.20
2023-02-13T17:51:48.847Z,31.40
2023-02-13T17:56:53.074Z,31.00
2023-02-13T18:01:55.873Z,31.00
2023-02-13T18:06:59.369Z,30.20
2023-02-13T18:12:06.020Z,29.20
2023-02-13T18:17:09.123Z,29.80
2023-02-13T18:22:12.587Z,28.60
2023-02-13T18:27:17.748Z,28.00
2023-02-13T18:32:20.617Z,27.00
2023-02-13T18:37:23.493Z,27.40
2023-02-13T18:42:28.469Z,27.00
2023-02-13T18:47:31.353Z,26.80
2023-02-13T18:52:35.368Z,25.00
2023-02-13T18:57:43.376Z,24.00
2023-02-13T19:02:46.250Z,24.40
2023-02-13T19:07:49.253Z,24.00
2023-02-13T19:12:53.499Z,23.60
2023-02-13T19:17:57.482Z,23.60
2023-02-13T19:23:00.321Z,23.20
2023-02-13T19:28:05.489Z,24.60
2023-02-13T19:33:08.412Z,24.00
2023-02-13T19:38:11.647Z,23.00
2023-02-13T19:43:15.841Z,22.60
2023-02-13T19:48:18.781Z,23.40
2023-02-13T19:53:21.519Z,22.80
2023-02-13T19:58:25.678Z,21.80
2023-02-13T20:03:28.436Z,22.40
2023-02-13T20:08:31.239Z,22.20
2023-02-13T20:13:35.403Z,21.80
2023-02-13T20:18:39.412Z,21.60
2023-02-13T20:23:43.198Z,22.00
2023-02-13T20:28:47.941Z,21.60
2023-02-13T20:33:52.122Z,20.40
2023-02-13T20:38:56.594Z,20.60
2023-02-13T20:44:02.112Z,21.40
2023-02-13T20:49:05.165Z,21.20
2023-02-13T20:54:08.026Z,22.20
2023-02-13T20:59:12.682Z,21.00
2023-02-13T21:04:19.077Z,20.60
2023-02-13T21:09:21.956Z,21.00
2023-02-13T21:14:26.371Z,21.00
2023-02-13T21:19:31.153Z,21.00
2023-02-13T21:24:33.948Z,20.60
2023-02-13T21:29:39.044Z,20.60
2023-02-13T21:34:43.229Z,20.40
2023-02-13T21:39:46.057Z,20.00
2023-02-13T21:44:50.576Z,19.40
2023-02-13T21:49:53.336Z,19.60
2023-02-13T21:54:56.085Z,18.60
2023-02-13T22:00:02.071Z,19.00
2023-02-13T22:05:15.308Z,18.40
2023-02-13T22:10:18.432Z,20.60
2023-02-13T22:15:22.708Z,20.40
2023-02-13T22:20:26.514Z,18.60
2023-02-13T22:25:29.345Z,19.60
2023-02-13T22:30:33.605Z,18.60
2023-02-13T22:35:38.694Z,18.20
2023-02-13T22:40:41.633Z,17.80
2023-02-13T22:45:45.906Z,19.00
2023-02-13T22:50:48.793Z,18.80
2023-02-13T22:55:51.525Z,17.40
2023-02-13T23:00:55.960Z,18.40
2023-02-13T23:05:58.752Z,17.00
2023-02-13T23:11:24.060Z,18.00
2023-02-13T23:16:49.086Z,17.40
2023-02-13T23:21:52.130Z,16.60
2023-02-13T23:26:54.962Z,15.60
2023-02-13T23:31:59.309Z,16.00
2023-02-13T23:37:02.216Z,14.80
2023-02-13T23:42:05.339Z,18.00
2023-02-13T23:47:09.520Z,17.00
2023-02-13T23:52:12.322Z,16.00
2023-02-13T23:57:15.370Z,15.60
